sensor_id;sensor_type;location;lat;lon;timestamp;temperature;humidity
1063;DHT22;520;50.932;6.962;2022-12-29T00:01:53;12.70;99.90
1063;DHT22;520;50.932;6.962;2022-12-29T00:04:25;12.60;99.90
1063;DHT22;520;50.932;6.962;2022-12-29T00:06:53;12.70;99.90
1063;DHT22;520;50.932;6.962;2022-12-29T00:09:25;12.80;99.90
1063;DHT22;520;50.932;6.962;2022-12-29T00:12:00;12.90;99.90
1063;DHT22;520;50.932;6.962;2022-12-29T00:14:31;13.00;99.90
1063;DHT22;520;50.932;6.962;2022-12-29T00:17:18;12.90;99.90
1063;DHT22;520;50.932;6.962;2022-12-29T00:19:51;12.90;99.90
1063;DHT22;520;50.932;6.962;2022-12-29T00:22:38;12.90;99.90
1063;DHT22;520;50.932;6.962;2022-12-29T00:25:24;12.90;99.90
1063;DHT22;520;50.932;6.962;2022-12-29T00:28:10;12.90;99.90
1063;DHT22;520;50.932;6.962;2022-12-29T00:31:01;12.90;99.90
1063;DHT22;520;50.932;6.962;2022-12-29T00:33:53;13.00;99.90
1063;DHT22;520;50.932;6.962;2022-12-29T00:36:40;12.90;99.90
1063;DHT22;520;50.932;6.962;2022-12-29T00:39:19;13.00;99.90
1063;DHT22;520;50.932;6.962;2022-12-29T00:42:06;13.10;99.90
1063;DHT22;520;50.932;6.962;2022-12-29T00:44:55;13.10;99.90
1063;DHT22;520;50.932;6.962;2022-12-29T00:47:25;13.00;99.90
1063;DHT22;520;50.932;6.962;2022-12-29T00:49:58;13.10;99.90
1063;DHT22;520;50.932;6.962;2022-12-29T00:52:37;13.00;99.90
1063;DHT22;520;50.932;6.962;2022-12-29T00:55:13;13.10;99.90
1063;DHT22;520;50.932;6.962;2022-12-29T00:57:46;13.30;99.90
1063;DHT22;520;50.932;6.962;2022-12-29T01:00:18;13.30;99.90
1063;DHT22;520;50.932;6.962;2022-12-29T01:02:50;13.30;99.90
1063;DHT22;520;50.932;6.962;2022-12-29T01:05:25;13.30;99.90
1063;DHT22;520;50.932;6.962;2022-12-29T01:07:58;13.30;99.90
1063;DHT22;520;50.932;6.962;2022-12-29T01:10:29;13.40;99.90
1063;DHT22;520;50.932;6.962;2022-12-29T01:13:03;13.30;99.90
1063;DHT22;520;50.932;6.962;2022-12-29T01:15:36;13.30;99.90
1063;DHT22;520;50.932;6.962;2022-12-29T01:18:15;13.30;99.90
1063;DHT22;520;50.932;6.962;2022-12-29T01:20:45;13.20;99.90
1063;DHT22;520;50.932;6.962;2022-12-29T01:23:15;13.30;99.90
1063;DHT22;520;50.932;6.962;2022-12-29T01:25:50;13.30;99.90
1063;DHT22;520;50.932;6.962;2022-12-29T01:28:25;13.30;99.90
1063;DHT22;520;50.932;6.962;2022-12-29T01:30:52;13.40;99.90
1063;DHT22;520;50.932;6.962;2022-12-29T01:33:23;13.50;99.90
1063;DHT22;520;50.932;6.962;2022-12-29T01:35:53;13.50;99.90
1063;DHT22;520;50.932;6.962;2022-12-29T01:38:32;13.50;99.90
1063;DHT22;520;50.932;6.962;2022-12-29T01:41:05;13.60;99.90
1063;DHT22;520;50.932;6.962;2022-12-29T01:46:33;13.60;99.90
1063;DHT22;520;50.932;6.962;2022-12-29T01:49:26;13.60;99.90
1063;DHT22;520;50.932;6.962;2022-12-29T01:52:15;13.50;99.90
1063;DHT22;520;50.932;6.962;2022-12-29T01:54:51;13.50;99.90
1063;DHT22;520;50.932;6.962;2022-12-29T01:57:48;13.70;99.50
1063;DHT22;520;50.932;6.962;2022-12-29T02:00:57;13.70;99.10
1063;DHT22;520;50.932;6.962;2022-12-29T02:03:42;13.60;98.90
1063;DHT22;520;50.932;6.962;2022-12-29T02:06:29;13.60;98.60
1063;DHT22;520;50.932;6.962;2022-12-29T02:08:59;13.60;98.70
1063;DHT22;520;50.932;6.962;2022-12-29T02:11:32;13.80;98.20
1063;DHT22;520;50.932;6.962;2022-12-29T02:14:08;13.80;97.90
1063;DHT22;520;50.932;6.962;2022-12-29T02:22:55;13.70;97.70
1063;DHT22;520;50.932;6.962;2022-12-29T02:31:26;13.80;97.40
1063;DHT22;520;50.932;6.962;2022-12-29T02:34:28;13.70;97.60
1063;DHT22;520;50.932;6.962;2022-12-29T02:43:39;13.90;97.30
1063;DHT22;520;50.932;6.962;2022-12-29T02:46:47;13.90;97.50
1063;DHT22;520;50.932;6.962;2022-12-29T02:49:38;13.90;97.40
1063;DHT22;520;50.932;6.962;2022-12-29T02:52:28;13.80;97.70
1063;DHT22;520;50.932;6.962;2022-12-29T02:55:15;13.70;98.00
1063;DHT22;520;50.932;6.962;2022-12-29T03:10:35;13.60;99.70
1063;DHT22;520;50.932;6.962;2022-12-29T03:17:12;13.70;99.80
1063;DHT22;520;50.932;6.962;2022-12-29T03:20:20;13.60;99.90
1063;DHT22;520;50.932;6.962;2022-12-29T03:23:12;13.70;99.90
1063;DHT22;520;50.932;6.962;2022-12-29T03:26:08;13.60;99.90
1063;DHT22;520;50.932;6.962;2022-12-29T03:28:53;13.60;99.90
1063;DHT22;520;50.932;6.962;2022-12-29T03:32:04;13.50;99.90
1063;DHT22;520;50.932;6.962;2022-12-29T03:35:02;13.60;99.90
1063;DHT22;520;50.932;6.962;2022-12-29T03:38:43;13.50;99.90
1063;DHT22;520;50.932;6.962;2022-12-29T03:41:11;13.50;99.90
1063;DHT22;520;50.932;6.962;2022-12-29T03:43:50;13.50;99.90
1063;DHT22;520;50.932;6.962;2022-12-29T03:46:54;13.60;99.90
1063;DHT22;520;50.932;6.962;2022-12-29T03:49:50;13.50;99.90
1063;DHT22;520;50.932;6.962;2022-12-29T03:52:22;13.60;99.90
1063;DHT22;520;50.932;6.962;2022-12-29T03:55:03;13.60;99.90
1063;DHT22;520;50.932;6.962;2022-12-29T03:57:54;13.60;99.90
1063;DHT22;520;50.932;6.962;2022-12-29T04:00:27;13.50;99.90
1063;DHT22;520;50.932;6.962;2022-12-29T04:03:03;13.50;99.90
1063;DHT22;520;50.932;6.962;2022-12-29T04:05:40;13.50;99.90
1063;DHT22;520;50.932;6.962;2022-12-29T04:08:14;13.50;99.90
1063;DHT22;520;50.932;6.962;2022-12-29T04:10:59;13.50;99.90
1063;DHT22;520;50.932;6.962;2022-12-29T04:16:31;13.50;99.90
1063;DHT22;520;50.932;6.962;2022-12-29T04:19:29;13.50;99.90
1063;DHT22;520;50.932;6.962;2022-12-29T04:22:32;13.50;99.90
1063;DHT22;520;50.932;6.962;2022-12-29T04:25:21;13.40;99.90
1063;DHT22;520;50.932;6.962;2022-12-29T04:28:04;13.40;99.90
1063;DHT22;520;50.932;6.962;2022-12-29T04:30:52;13.40;99.90
1063;DHT22;520;50.932;6.962;2022-12-29T04:33:35;13.30;99.90
1063;DHT22;520;50.932;6.962;2022-12-29T04:36:24;13.40;99.90
1063;DHT22;520;50.932;6.962;2022-12-29T04:39:10;13.40;99.90
1063;DHT22;520;50.932;6.962;2022-12-29T04:41:52;13.50;99.90
1063;DHT22;520;50.932;6.962;2022-12-29T04:44:41;13.50;99.90
1063;DHT22;520;50.932;6.962;2022-12-29T04:47:27;13.40;99.90
1063;DHT22;520;50.932;6.962;2022-12-29T04:50:14;13.40;99.90
1063;DHT22;520;50.932;6.962;2022-12-29T04:52:43;13.40;99.90
1063;DHT22;520;50.932;6.962;2022-12-29T04:55:16;13.10;99.90
1063;DHT22;520;50.932;6.962;2022-12-29T04:58:06;13.30;99.90
1063;DHT22;520;50.932;6.962;2022-12-29T05:00:36;13.60;99.70
1063;DHT22;520;50.932;6.962;2022-12-29T05:03:25;13.60;99.20
1063;DHT22;520;50.932;6.962;2022-12-29T05:06:23;13.20;99.60
1063;DHT22;520;50.932;6.962;2022-12-29T05:08:52;13.50;99.50
1063;DHT22;520;50.932;6.962;2022-12-29T05:11:24;13.40;99.10
1063;DHT22;520;50.932;6.962;2022-12-29T05:14:01;13.30;99.20
1063;DHT22;520;50.932;6.962;2022-12-29T05:16:43;13.30;99.10
1063;DHT22;520;50.932;6.962;2022-12-29T05:19:33;13.30;99.30
1063;DHT22;520;50.932;6.962;2022-12-29T05:22:05;13.30;99.20
1063;DHT22;520;50.932;6.962;2022-12-29T05:24:38;13.40;99.10
1063;DHT22;520;50.932;6.962;2022-12-29T05:27:23;13.50;98.60
1063;DHT22;520;50.932;6.962;2022-12-29T05:30:19;13.50;98.30
1063;DHT22;520;50.932;6.962;2022-12-29T05:33:03;13.50;98.10
1063;DHT22;520;50.932;6.962;2022-12-29T05:35:51;13.50;98.30
1063;DHT22;520;50.932;6.962;2022-12-29T05:39:01;13.50;98.40
1063;DHT22;520;50.932;6.962;2022-12-29T05:41:58;13.70;97.80
1063;DHT22;520;50.932;6.962;2022-12-29T05:44:30;13.60;97.60
1063;DHT22;520;50.932;6.962;2022-12-29T05:47:14;13.70;97.80
1063;DHT22;520;50.932;6.962;2022-12-29T05:50:13;13.70;97.60
1063;DHT22;520;50.932;6.962;2022-12-29T05:52:49;13.70;97.40
1063;DHT22;520;50.932;6.962;2022-12-29T05:58:26;13.70;97.80
1063;DHT22;520;50.932;6.962;2022-12-29T06:01:02;13.40;98.40
1063;DHT22;520;50.932;6.962;2022-12-29T06:03:47;13.60;98.00
1063;DHT22;520;50.932;6.962;2022-12-29T06:06:20;13.40;98.20
1063;DHT22;520;50.932;6.962;2022-12-29T06:08:56;13.60;98.30
1063;DHT22;520;50.932;6.962;2022-12-29T06:11:42;13.60;98.00
1063;DHT22;520;50.932;6.962;2022-12-29T06:14:16;13.30;98.30
1063;DHT22;520;50.932;6.962;2022-12-29T06:16:57;13.40;98.40
1063;DHT22;520;50.932;6.962;2022-12-29T06:19:31;13.10;98.60
1063;DHT22;520;50.932;6.962;2022-12-29T06:22:01;13.20;99.00
1063;DHT22;520;50.932;6.962;2022-12-29T06:24:37;13.30;98.50
1063;DHT22;520;50.932;6.962;2022-12-29T06:27:37;13.50;98.30
1063;DHT22;520;50.932;6.962;2022-12-29T06:30:35;13.70;97.40
1063;DHT22;520;50.932;6.962;2022-12-29T06:33:25;13.80;97.50
1063;DHT22;520;50.932;6.962;2022-12-29T06:36:16;13.80;97.50
1063;DHT22;520;50.932;6.962;2022-12-29T06:38:49;13.80;97.70
1063;DHT22;520;50.932;6.962;2022-12-29T06:41:20;13.80;97.90
1063;DHT22;520;50.932;6.962;2022-12-29T06:44:07;13.60;98.20
1063;DHT22;520;50.932;6.962;2022-12-29T06:46:42;13.60;98.50
1063;DHT22;520;50.932;6.962;2022-12-29T06:49:20;13.30;99.10
1063;DHT22;520;50.932;6.962;2022-12-29T06:51:53;13.40;99.60
1063;DHT22;520;50.932;6.962;2022-12-29T06:54:40;13.60;99.20
1063;DHT22;520;50.932;6.962;2022-12-29T06:57:21;13.50;99.20
1063;DHT22;520;50.932;6.962;2022-12-29T07:00:15;13.20;99.50
1063;DHT22;520;50.932;6.962;2022-12-29T07:03:00;13.40;99.80
1063;DHT22;520;50.932;6.962;2022-12-29T07:05:42;13.60;98.70
1063;DHT22;520;50.932;6.962;2022-12-29T07:08:31;13.70;98.20
1063;DHT22;520;50.932;6.962;2022-12-29T07:11:17;13.40;98.50
1063;DHT22;520;50.932;6.962;2022-12-29T07:13:48;13.50;98.20
1063;DHT22;520;50.932;6.962;2022-12-29T07:16:18;13.60;97.50
1063;DHT22;520;50.932;6.962;2022-12-29T07:18:48;13.50;97.50
1063;DHT22;520;50.932;6.962;2022-12-29T07:21:29;13.30;97.80
1063;DHT22;520;50.932;6.962;2022-12-29T07:23:57;13.40;97.30
1063;DHT22;520;50.932;6.962;2022-12-29T07:26:24;13.10;97.50
1063;DHT22;520;50.932;6.962;2022-12-29T07:29:00;13.10;97.50
1063;DHT22;520;50.932;6.962;2022-12-29T07:31:46;13.00;97.80
1063;DHT22;520;50.932;6.962;2022-12-29T07:34:45;13.10;97.80
1063;DHT22;520;50.932;6.962;2022-12-29T07:37:25;13.00;97.70
1063;DHT22;520;50.932;6.962;2022-12-29T07:40:03;13.20;97.40
1063;DHT22;520;50.932;6.962;2022-12-29T07:42:36;13.00;97.60
1063;DHT22;520;50.932;6.962;2022-12-29T07:48:54;12.90;97.90
1063;DHT22;520;50.932;6.962;2022-12-29T07:51:28;13.20;97.60
1063;DHT22;520;50.932;6.962;2022-12-29T07:53:59;13.10;97.30
1063;DHT22;520;50.932;6.962;2022-12-29T07:56:30;13.20;97.60
1063;DHT22;520;50.932;6.962;2022-12-29T07:59:03;13.00;97.50
1063;DHT22;520;50.932;6.962;2022-12-29T08:01:48;13.00;97.60
1063;DHT22;520;50.932;6.962;2022-12-29T08:04:23;13.20;97.40
1063;DHT22;520;50.932;6.962;2022-12-29T08:06:52;13.00;97.40
1063;DHT22;520;50.932;6.962;2022-12-29T08:09:31;13.00;97.60
1063;DHT22;520;50.932;6.962;2022-12-29T08:12:10;12.90;97.60
1063;DHT22;520;50.932;6.962;2022-12-29T08:14:47;13.20;97.20
1063;DHT22;520;50.932;6.962;2022-12-29T08:17:22;13.20;97.10
1063;DHT22;520;50.932;6.962;2022-12-29T08:19:53;13.20;96.70
1063;DHT22;520;50.932;6.962;2022-12-29T08:22:21;13.10;96.50
1063;DHT22;520;50.932;6.962;2022-12-29T08:25:14;13.10;96.60
1063;DHT22;520;50.932;6.962;2022-12-29T08:27:43;13.10;96.70
1063;DHT22;520;50.932;6.962;2022-12-29T08:30:16;13.20;96.50
1063;DHT22;520;50.932;6.962;2022-12-29T08:32:47;13.20;96.40
1063;DHT22;520;50.932;6.962;2022-12-29T08:35:21;13.10;96.20
1063;DHT22;520;50.932;6.962;2022-12-29T08:38:18;13.20;95.50
1063;DHT22;520;50.932;6.962;2022-12-29T08:44:04;13.20;95.20
1063;DHT22;520;50.932;6.962;2022-12-29T08:46:36;13.30;95.10
1063;DHT22;520;50.932;6.962;2022-12-29T08:49:15;13.20;94.90
1063;DHT22;520;50.932;6.962;2022-12-29T08:52:07;13.20;95.00
1063;DHT22;520;50.932;6.962;2022-12-29T08:54:38;13.40;94.20
1063;DHT22;520;50.932;6.962;2022-12-29T08:57:21;13.20;94.20
1063;DHT22;520;50.932;6.962;2022-12-29T08:59:56;13.10;94.50
1063;DHT22;520;50.932;6.962;2022-12-29T09:02:37;13.10;94.40
1063;DHT22;520;50.932;6.962;2022-12-29T09:05:09;13.10;94.50
1063;DHT22;520;50.932;6.962;2022-12-29T09:07:45;13.10;94.30
1063;DHT22;520;50.932;6.962;2022-12-29T09:10:38;12.90;94.20
1063;DHT22;520;50.932;6.962;2022-12-29T09:13:46;13.00;94.00
1063;DHT22;520;50.932;6.962;2022-12-29T09:16:15;13.10;93.60
1063;DHT22;520;50.932;6.962;2022-12-29T09:18:48;13.00;93.40
1063;DHT22;520;50.932;6.962;2022-12-29T09:21:17;12.90;93.70
1063;DHT22;520;50.932;6.962;2022-12-29T09:23:51;13.30;93.50
1063;DHT22;520;50.932;6.962;2022-12-29T09:26:24;13.20;93.00
1063;DHT22;520;50.932;6.962;2022-12-29T09:28:56;13.00;93.30
1063;DHT22;520;50.932;6.962;2022-12-29T09:31:24;13.20;93.20
1063;DHT22;520;50.932;6.962;2022-12-29T09:33:57;13.20;93.00
1063;DHT22;520;50.932;6.962;2022-12-29T09:36:27;13.10;93.20
1063;DHT22;520;50.932;6.962;2022-12-29T09:38:55;13.70;92.30
1063;DHT22;520;50.932;6.962;2022-12-29T09:41:37;14.20;91.60
1063;DHT22;520;50.932;6.962;2022-12-29T09:47:05;15.00;89.90
1063;DHT22;520;50.932;6.962;2022-12-29T09:50:19;16.00;85.60
1063;DHT22;520;50.932;6.962;2022-12-29T09:53:19;16.90;80.50
1063;DHT22;520;50.932;6.962;2022-12-29T09:55:51;16.90;77.10
1063;DHT22;520;50.932;6.962;2022-12-29T09:58:55;16.70;78.20
1063;DHT22;520;50.932;6.962;2022-12-29T10:02:13;17.00;76.70
1063;DHT22;520;50.932;6.962;2022-12-29T10:04:47;16.80;76.20
1063;DHT22;520;50.932;6.962;2022-12-29T10:07:38;16.60;75.50
1063;DHT22;520;50.932;6.962;2022-12-29T10:13:43;15.40;79.60
1063;DHT22;520;50.932;6.962;2022-12-29T10:25:19;14.50;82.40
1063;DHT22;520;50.932;6.962;2022-12-29T10:27:56;14.50;83.90
1063;DHT22;520;50.932;6.962;2022-12-29T10:30:27;14.70;82.80
1063;DHT22;520;50.932;6.962;2022-12-29T10:33:02;14.50;83.40
1063;DHT22;520;50.932;6.962;2022-12-29T10:35:44;14.50;83.50
1063;DHT22;520;50.932;6.962;2022-12-29T10:41:34;14.40;82.50
1063;DHT22;520;50.932;6.962;2022-12-29T10:44:23;14.70;81.90
1063;DHT22;520;50.932;6.962;2022-12-29T10:47:20;14.70;80.90
1063;DHT22;520;50.932;6.962;2022-12-29T10:56:44;14.70;81.70
1063;DHT22;520;50.932;6.962;2022-12-29T10:59:28;14.50;82.90
1063;DHT22;520;50.932;6.962;2022-12-29T11:07:39;14.20;84.10
1063;DHT22;520;50.932;6.962;2022-12-29T11:10:49;14.20;84.70
1063;DHT22;520;50.932;6.962;2022-12-29T11:13:50;14.20;84.90
1063;DHT22;520;50.932;6.962;2022-12-29T11:16:33;14.30;85.30
1063;DHT22;520;50.932;6.962;2022-12-29T11:19:26;14.40;84.80
1063;DHT22;520;50.932;6.962;2022-12-29T11:22:31;14.40;85.40
1063;DHT22;520;50.932;6.962;2022-12-29T11:28:46;14.60;84.70
1063;DHT22;520;50.932;6.962;2022-12-29T11:37:53;14.30;84.70
1063;DHT22;520;50.932;6.962;2022-12-29T11:43:47;14.10;85.30
1063;DHT22;520;50.932;6.962;2022-12-29T11:47:07;14.20;85.90
1063;DHT22;520;50.932;6.962;2022-12-29T11:50:15;14.10;85.90
1063;DHT22;520;50.932;6.962;2022-12-29T11:56:35;14.00;86.80
1063;DHT22;520;50.932;6.962;2022-12-29T11:59:40;14.10;86.70
1063;DHT22;520;50.932;6.962;2022-12-29T12:03:13;14.00;87.00
1063;DHT22;520;50.932;6.962;2022-12-29T12:06:25;14.10;86.40
1063;DHT22;520;50.932;6.962;2022-12-29T12:12:05;14.20;86.40
1063;DHT22;520;50.932;6.962;2022-12-29T12:14:41;14.20;85.70
1063;DHT22;520;50.932;6.962;2022-12-29T12:18:09;14.00;86.00
1063;DHT22;520;50.932;6.962;2022-12-29T12:21:18;14.00;86.10
1063;DHT22;520;50.932;6.962;2022-12-29T12:26:58;13.90;86.90
1063;DHT22;520;50.932;6.962;2022-12-29T12:29:50;13.80;87.40
1063;DHT22;520;50.932;6.962;2022-12-29T13:20:30;13.80;89.50
1063;DHT22;520;50.932;6.962;2022-12-29T14:00:45;13.50;90.70
1063;DHT22;520;50.932;6.962;2022-12-29T14:07:25;13.30;91.70
1063;DHT22;520;50.932;6.962;2022-12-29T14:18:49;13.20;91.90
1063;DHT22;520;50.932;6.962;2022-12-29T14:22:26;13.50;91.90
1063;DHT22;520;50.932;6.962;2022-12-29T14:39:46;13.50;92.10
1063;DHT22;520;50.932;6.962;2022-12-29T14:58:46;12.90;94.00
1063;DHT22;520;50.932;6.962;2022-12-29T15:02:20;12.80;94.20
1063;DHT22;520;50.932;6.962;2022-12-29T15:23:31;12.70;93.10
1063;DHT22;520;50.932;6.962;2022-12-29T15:29:39;12.90;92.80
1063;DHT22;520;50.932;6.962;2022-12-29T15:32:29;12.80;92.90
1063;DHT22;520;50.932;6.962;2022-12-29T15:37:52;12.50;93.20
1063;DHT22;520;50.932;6.962;2022-12-29T15:40:28;12.40;93.50
1063;DHT22;520;50.932;6.962;2022-12-29T15:46:01;12.50;93.70
1063;DHT22;520;50.932;6.962;2022-12-29T15:48:34;12.20;93.80
1063;DHT22;520;50.932;6.962;2022-12-29T15:51:19;12.40;94.10
1063;DHT22;520;50.932;6.962;2022-12-29T15:54:02;12.40;93.40
1063;DHT22;520;50.932;6.962;2022-12-29T15:56:35;12.30;93.70
1063;DHT22;520;50.932;6.962;2022-12-29T15:59:18;12.40;93.80
1063;DHT22;520;50.932;6.962;2022-12-29T16:01:54;12.40;93.70
1063;DHT22;520;50.932;6.962;2022-12-29T16:04:26;12.30;93.50
1063;DHT22;520;50.932;6.962;2022-12-29T16:07:41;12.40;93.10
1063;DHT22;520;50.932;6.962;2022-12-29T16:10:39;12.10;93.20
1063;DHT22;520;50.932;6.962;2022-12-29T16:13:26;12.20;93.40
1063;DHT22;520;50.932;6.962;2022-12-29T16:16:34;12.40;93.10
1063;DHT22;520;50.932;6.962;2022-12-29T16:21:57;12.30;92.90
1063;DHT22;520;50.932;6.962;2022-12-29T16:24:33;12.20;93.10
1063;DHT22;520;50.932;6.962;2022-12-29T16:27:32;12.10;93.20
1063;DHT22;520;50.932;6.962;2022-12-29T16:30:27;11.90;93.70
1063;DHT22;520;50.932;6.962;2022-12-29T16:33:02;12.10;93.40
1063;DHT22;520;50.932;6.962;2022-12-29T16:39:31;12.10;93.20
1063;DHT22;520;50.932;6.962;2022-12-29T16:50:42;12.00;94.10
1063;DHT22;520;50.932;6.962;2022-12-29T16:53:28;12.00;94.50
1063;DHT22;520;50.932;6.962;2022-12-29T16:56:15;11.80;95.00
1063;DHT22;520;50.932;6.962;2022-12-29T16:59:00;11.60;95.10
1063;DHT22;520;50.932;6.962;2022-12-29T17:01:41;11.80;95.30
1063;DHT22;520;50.932;6.962;2022-12-29T17:04:20;11.70;95.20
1063;DHT22;520;50.932;6.962;2022-12-29T17:06:54;11.70;95.50
1063;DHT22;520;50.932;6.962;2022-12-29T17:09:27;11.70;95.50
1063;DHT22;520;50.932;6.962;2022-12-29T17:12:00;11.70;95.50
1063;DHT22;520;50.932;6.962;2022-12-29T17:14:46;11.60;95.70
1063;DHT22;520;50.932;6.962;2022-12-29T17:18:00;11.50;95.70
1063;DHT22;520;50.932;6.962;2022-12-29T17:20:38;11.50;96.00
1063;DHT22;520;50.932;6.962;2022-12-29T17:23:16;11.60;95.60
1063;DHT22;520;50.932;6.962;2022-12-29T17:25:54;11.60;95.50
1063;DHT22;520;50.932;6.962;2022-12-29T17:28:41;11.60;95.50
1063;DHT22;520;50.932;6.962;2022-12-29T17:31:15;11.60;95.50
1063;DHT22;520;50.932;6.962;2022-12-29T17:33:47;11.50;95.50
1063;DHT22;520;50.932;6.962;2022-12-29T17:36:23;11.50;95.60
1063;DHT22;520;50.932;6.962;2022-12-29T17:38:54;11.60;95.60
1063;DHT22;520;50.932;6.962;2022-12-29T17:41:27;11.60;95.50
1063;DHT22;520;50.932;6.962;2022-12-29T17:44:19;11.60;95.50
1063;DHT22;520;50.932;6.962;2022-12-29T17:46:53;11.60;95.30
1063;DHT22;520;50.932;6.962;2022-12-29T17:49:20;11.50;95.30
1063;DHT22;520;50.932;6.962;2022-12-29T17:51:53;11.60;95.20
1063;DHT22;520;50.932;6.962;2022-12-29T17:54:31;11.60;95.10
1063;DHT22;520;50.932;6.962;2022-12-29T17:57:01;11.50;95.30
1063;DHT22;520;50.932;6.962;2022-12-29T17:59:30;11.40;95.50
1063;DHT22;520;50.932;6.962;2022-12-29T18:01:57;11.30;95.80
1063;DHT22;520;50.932;6.962;2022-12-29T18:04:31;11.40;95.80
1063;DHT22;520;50.932;6.962;2022-12-29T18:07:04;11.40;95.80
1063;DHT22;520;50.932;6.962;2022-12-29T18:09:44;11.50;96.00
1063;DHT22;520;50.932;6.962;2022-12-29T18:12:32;11.50;95.80
1063;DHT22;520;50.932;6.962;2022-12-29T18:15:09;11.40;96.00
1063;DHT22;520;50.932;6.962;2022-12-29T18:17:58;11.50;96.30
1063;DHT22;520;50.932;6.962;2022-12-29T18:20:33;11.30;96.10
1063;DHT22;520;50.932;6.962;2022-12-29T18:23:00;11.40;96.20
1063;DHT22;520;50.932;6.962;2022-12-29T18:25:50;11.50;96.10
1063;DHT22;520;50.932;6.962;2022-12-29T18:28:24;11.40;96.20
1063;DHT22;520;50.932;6.962;2022-12-29T18:31:00;11.30;96.40
1063;DHT22;520;50.932;6.962;2022-12-29T18:33:29;11.40;96.40
1063;DHT22;520;50.932;6.962;2022-12-29T18:36:03;11.20;96.50
1063;DHT22;520;50.932;6.962;2022-12-29T18:38:37;11.20;96.90
1063;DHT22;520;50.932;6.962;2022-12-29T18:41:22;11.20;97.30
1063;DHT22;520;50.932;6.962;2022-12-29T18:44:01;11.20;97.40
1063;DHT22;520;50.932;6.962;2022-12-29T18:46:39;11.60;96.60
1063;DHT22;520;50.932;6.962;2022-12-29T18:49:23;11.70;95.70
1063;DHT22;520;50.932;6.962;2022-12-29T18:51:53;11.40;95.90
1063;DHT22;520;50.932;6.962;2022-12-29T18:54:28;11.20;96.20
1063;DHT22;520;50.932;6.962;2022-12-29T18:57:01;11.10;96.50
1063;DHT22;520;50.932;6.962;2022-12-29T18:59:33;11.20;96.50
1063;DHT22;520;50.932;6.962;2022-12-29T19:02:21;11.30;96.10
1063;DHT22;520;50.932;6.962;2022-12-29T19:07:50;11.60;95.80
1063;DHT22;520;50.932;6.962;2022-12-29T19:10:34;11.70;95.30
1063;DHT22;520;50.932;6.962;2022-12-29T19:13:05;11.50;95.30
1063;DHT22;520;50.932;6.962;2022-12-29T19:15:41;11.60;95.90
1063;DHT22;520;50.932;6.962;2022-12-29T19:18:49;11.60;95.60
1063;DHT22;520;50.932;6.962;2022-12-29T19:21:42;11.60;95.80
1063;DHT22;520;50.932;6.962;2022-12-29T19:24:12;11.40;96.00
1063;DHT22;520;50.932;6.962;2022-12-29T19:26:42;11.30;95.40
1063;DHT22;520;50.932;6.962;2022-12-29T19:29:22;11.30;95.70
1063;DHT22;520;50.932;6.962;2022-12-29T19:32:03;11.10;95.90
1063;DHT22;520;50.932;6.962;2022-12-29T19:35:02;10.90;96.30
1063;DHT22;520;50.932;6.962;2022-12-29T19:37:53;11.10;96.40
1063;DHT22;520;50.932;6.962;2022-12-29T19:40:56;11.00;96.20
1063;DHT22;520;50.932;6.962;2022-12-29T19:44:07;11.30;96.10
1063;DHT22;520;50.932;6.962;2022-12-29T19:46:54;11.40;95.60
1063;DHT22;520;50.932;6.962;2022-12-29T19:50:07;11.00;95.80
1063;DHT22;520;50.932;6.962;2022-12-29T19:52:52;10.80;96.50
1063;DHT22;520;50.932;6.962;2022-12-29T19:55:39;10.90;96.90
1063;DHT22;520;50.932;6.962;2022-12-29T19:58:17;11.10;96.30
1063;DHT22;520;50.932;6.962;2022-12-29T20:00:52;10.90;96.20
1063;DHT22;520;50.932;6.962;2022-12-29T20:03:37;10.90;96.60
1063;DHT22;520;50.932;6.962;2022-12-29T20:06:11;10.90;96.60
1063;DHT22;520;50.932;6.962;2022-12-29T20:09:09;11.00;96.70
1063;DHT22;520;50.932;6.962;2022-12-29T20:11:49;11.10;96.20
1063;DHT22;520;50.932;6.962;2022-12-29T20:14:33;10.80;96.50
1063;DHT22;520;50.932;6.962;2022-12-29T20:17:17;10.80;97.00
1063;DHT22;520;50.932;6.962;2022-12-29T20:19:58;11.10;96.50
1063;DHT22;520;50.932;6.962;2022-12-29T20:22:59;11.00;96.30
1063;DHT22;520;50.932;6.962;2022-12-29T20:25:49;10.90;96.60
1063;DHT22;520;50.932;6.962;2022-12-29T20:28:31;10.60;97.00
1063;DHT22;520;50.932;6.962;2022-12-29T20:31:20;10.80;97.10
1063;DHT22;520;50.932;6.962;2022-12-29T20:34:04;10.80;97.00
1063;DHT22;520;50.932;6.962;2022-12-29T20:36:43;10.80;97.20
1063;DHT22;520;50.932;6.962;2022-12-29T20:39:18;10.70;97.20
1063;DHT22;520;50.932;6.962;2022-12-29T20:41:59;10.70;97.20
1063;DHT22;520;50.932;6.962;2022-12-29T20:44:48;10.70;97.30
1063;DHT22;520;50.932;6.962;2022-12-29T20:47:18;10.60;97.20
1063;DHT22;520;50.932;6.962;2022-12-29T20:50:02;10.40;97.40
1063;DHT22;520;50.932;6.962;2022-12-29T20:52:43;10.20;97.70
1063;DHT22;520;50.932;6.962;2022-12-29T20:55:21;10.40;97.80
1063;DHT22;520;50.932;6.962;2022-12-29T20:57:54;10.70;97.20
1063;DHT22;520;50.932;6.962;2022-12-29T21:00:40;10.70;96.80
1063;DHT22;520;50.932;6.962;2022-12-29T21:03:18;10.80;96.60
1063;DHT22;520;50.932;6.962;2022-12-29T21:05:55;10.70;96.50
1063;DHT22;520;50.932;6.962;2022-12-29T21:08:31;10.60;96.80
1063;DHT22;520;50.932;6.962;2022-12-29T21:11:05;10.70;96.70
1063;DHT22;520;50.932;6.962;2022-12-29T21:13:59;10.60;96.60
1063;DHT22;520;50.932;6.962;2022-12-29T21:16:45;10.50;96.80
1063;DHT22;520;50.932;6.962;2022-12-29T21:19:21;10.40;96.90
1063;DHT22;520;50.932;6.962;2022-12-29T21:22:00;10.40;97.20
1063;DHT22;520;50.932;6.962;2022-12-29T21:24:45;10.40;97.00
1063;DHT22;520;50.932;6.962;2022-12-29T21:27:27;10.50;96.70
1063;DHT22;520;50.932;6.962;2022-12-29T21:29:59;10.50;96.80
1063;DHT22;520;50.932;6.962;2022-12-29T21:32:32;10.50;96.70
1063;DHT22;520;50.932;6.962;2022-12-29T21:35:00;10.40;96.60
1063;DHT22;520;50.932;6.962;2022-12-29T21:37:57;10.40;96.60
1063;DHT22;520;50.932;6.962;2022-12-29T21:40:25;10.20;97.00
1063;DHT22;520;50.932;6.962;2022-12-29T21:42:57;10.30;97.10
1063;DHT22;520;50.932;6.962;2022-12-29T21:45:31;10.30;96.90
1063;DHT22;520;50.932;6.962;2022-12-29T21:48:04;10.30;96.90
1063;DHT22;520;50.932;6.962;2022-12-29T21:51:10;10.30;97.00
1063;DHT22;520;50.932;6.962;2022-12-29T21:53:59;10.30;96.90
1063;DHT22;520;50.932;6.962;2022-12-29T21:56:52;10.30;96.90
1063;DHT22;520;50.932;6.962;2022-12-29T21:59:32;10.20;97.00
1063;DHT22;520;50.932;6.962;2022-12-29T22:02:27;10.20;97.10
1063;DHT22;520;50.932;6.962;2022-12-29T22:05:18;10.30;97.10
1063;DHT22;520;50.932;6.962;2022-12-29T22:08:07;10.20;96.90
1063;DHT22;520;50.932;6.962;2022-12-29T22:11:09;10.20;96.90
1063;DHT22;520;50.932;6.962;2022-12-29T22:13:58;10.20;97.10
1063;DHT22;520;50.932;6.962;2022-12-29T22:16:36;10.10;97.10
1063;DHT22;520;50.932;6.962;2022-12-29T22:19:09;10.00;97.10
1063;DHT22;520;50.932;6.962;2022-12-29T22:21:38;10.10;97.30
1063;DHT22;520;50.932;6.962;2022-12-29T22:24:19;10.10;97.20
1063;DHT22;520;50.932;6.962;2022-12-29T22:27:00;10.00;97.30
1063;DHT22;520;50.932;6.962;2022-12-29T22:29:54;10.20;97.20
1063;DHT22;520;50.932;6.962;2022-12-29T22:32:49;10.20;97.00
1063;DHT22;520;50.932;6.962;2022-12-29T22:35:28;10.20;96.70
1063;DHT22;520;50.932;6.962;2022-12-29T22:38:24;10.20;96.80